sensor_id;sensor_type;location;lat;lon;timestamp;temperature;humidity
7684;DHT22;3884;48.616;12.872;2023-02-20T00:01:28;8.00;1.00
7684;DHT22;3884;48.616;12.872;2023-02-20T00:03:55;8.00;1.00
7684;DHT22;3884;48.616;12.872;2023-02-20T00:06:22;8.00;1.00
7684;DHT22;3884;48.616;12.872;2023-02-20T00:08:49;7.90;1.00
7684;DHT22;3884;48.616;12.872;2023-02-20T00:11:16;7.90;61.20
7684;DHT22;3884;48.616;12.872;2023-02-20T00:13:44;7.90;1.00
7684;DHT22;3884;48.616;12.872;2023-02-20T00:16:12;7.90;7.60
7684;DHT22;3884;48.616;12.872;2023-02-20T00:18:40;7.90;1.00
7684;DHT22;3884;48.616;12.872;2023-02-20T00:21:07;7.90;1.00
7684;DHT22;3884;48.616;12.872;2023-02-20T00:23:34;7.90;1.00
7684;DHT22;3884;48.616;12.872;2023-02-20T00:26:02;7.90;1.00
7684;DHT22;3884;48.616;12.872;2023-02-20T00:28:29;7.90;1.00
7684;DHT22;3884;48.616;12.872;2023-02-20T00:30:57;7.90;12.20
7684;DHT22;3884;48.616;12.872;2023-02-20T00:33:24;7.90;61.40
7684;DHT22;3884;48.616;12.872;2023-02-20T00:35:52;7.90;1.00
7684;DHT22;3884;48.616;12.872;2023-02-20T00:38:19;7.90;99.90
7684;DHT22;3884;48.616;12.872;2023-02-20T00:40:46;7.90;44.60
7684;DHT22;3884;48.616;12.872;2023-02-20T00:43:14;7.80;99.90
7684;DHT22;3884;48.616;12.872;2023-02-20T00:45:41;7.80;99.90
7684;DHT22;3884;48.616;12.872;2023-02-20T00:48:08;7.70;1.00
7684;DHT22;3884;48.616;12.872;2023-02-20T00:50:35;7.60;99.90
7684;DHT22;3884;48.616;12.872;2023-02-20T00:53:03;7.50;99.90
7684;DHT22;3884;48.616;12.872;2023-02-20T00:55:30;7.40;99.90
7684;DHT22;3884;48.616;12.872;2023-02-20T00:57:57;7.40;1.00
7684;DHT22;3884;48.616;12.872;2023-02-20T01:00:28;7.40;1.00
7684;DHT22;3884;48.616;12.872;2023-02-20T01:02:55;7.40;99.90
7684;DHT22;3884;48.616;12.872;2023-02-20T01:05:23;7.40;1.00
7684;DHT22;3884;48.616;12.872;2023-02-20T01:07:51;7.40;99.90
7684;DHT22;3884;48.616;12.872;2023-02-20T01:10:20;7.40;1.00
7684;DHT22;3884;48.616;12.872;2023-02-20T01:12:47;7.40;1.00
7684;DHT22;3884;48.616;12.872;2023-02-20T01:15:15;7.40;1.00
7684;DHT22;3884;48.616;12.872;2023-02-20T01:17:42;7.50;99.90
7684;DHT22;3884;48.616;12.872;2023-02-20T01:20:10;7.40;1.00
7684;DHT22;3884;48.616;12.872;2023-02-20T01:22:37;7.50;1.00
7684;DHT22;3884;48.616;12.872;2023-02-20T01:25:05;7.50;1.00
7684;DHT22;3884;48.616;12.872;2023-02-20T01:27:33;7.50;1.00
7684;DHT22;3884;48.616;12.872;2023-02-20T01:30:00;7.50;1.00
7684;DHT22;3884;48.616;12.872;2023-02-20T01:32:27;7.40;1.00
7684;DHT22;3884;48.616;12.872;2023-02-20T01:34:54;7.50;99.90
7684;DHT22;3884;48.616;12.872;2023-02-20T01:37:21;7.50;1.00
7684;DHT22;3884;48.616;12.872;2023-02-20T01:39:48;7.50;5.20
7684;DHT22;3884;48.616;12.872;2023-02-20T01:42:19;7.60;1.00
7684;DHT22;3884;48.616;12.872;2023-02-20T01:44:49;7.60;1.00
7684;DHT22;3884;48.616;12.872;2023-02-20T01:47:17;7.50;99.90
7684;DHT22;3884;48.616;12.872;2023-02-20T01:49:47;7.50;99.90
7684;DHT22;3884;48.616;12.872;2023-02-20T01:52:18;7.60;62.70
7684;DHT22;3884;48.616;12.872;2023-02-20T01:54:50;7.60;1.00
7684;DHT22;3884;48.616;12.872;2023-02-20T01:57:22;7.60;1.00
7684;DHT22;3884;48.616;12.872;2023-02-20T01:59:54;7.60;56.50
7684;DHT22;3884;48.616;12.872;2023-02-20T02:02:23;7.60;1.00
7684;DHT22;3884;48.616;12.872;2023-02-20T02:04:51;7.50;25.10
7684;DHT22;3884;48.616;12.872;2023-02-20T02:07:21;7.50;1.00
7684;DHT22;3884;48.616;12.872;2023-02-20T02:09:51;7.50;34.80
7684;DHT22;3884;48.616;12.872;2023-02-20T02:12:21;7.50;1.00
7684;DHT22;3884;48.616;12.872;2023-02-20T02:14:50;7.60;99.90
7684;DHT22;3884;48.616;12.872;2023-02-20T02:23:59;7.50;1.00
7684;DHT22;3884;48.616;12.872;2023-02-20T02:36:22;7.60;99.90
7684;DHT22;3884;48.616;12.872;2023-02-20T02:38:56;7.50;99.90
7684;DHT22;3884;48.616;12.872;2023-02-20T02:41:33;7.40;99.90
7684;DHT22;3884;48.616;12.872;2023-02-20T02:44:10;7.40;99.90
7684;DHT22;3884;48.616;12.872;2023-02-20T02:46:41;7.40;1.00
7684;DHT22;3884;48.616;12.872;2023-02-20T02:49:16;7.40;99.90
7684;DHT22;3884;48.616;12.872;2023-02-20T02:51:53;7.30;99.90
7684;DHT22;3884;48.616;12.872;2023-02-20T02:54:23;7.30;1.00
7684;DHT22;3884;48.616;12.872;2023-02-20T02:56:53;7.30;1.00
7684;DHT22;3884;48.616;12.872;2023-02-20T02:59:26;7.40;99.90
7684;DHT22;3884;48.616;12.872;2023-02-20T03:01:58;7.30;99.90
7684;DHT22;3884;48.616;12.872;2023-02-20T03:04:27;7.40;1.00
7684;DHT22;3884;48.616;12.872;2023-02-20T03:07:02;7.40;1.00
7684;DHT22;3884;48.616;12.872;2023-02-20T03:09:35;7.40;99.90
7684;DHT22;3884;48.616;12.872;2023-02-20T03:12:05;7.40;99.90
7684;DHT22;3884;48.616;12.872;2023-02-20T03:14:37;7.40;99.90
7684;DHT22;3884;48.616;12.872;2023-02-20T03:17:29;7.40;99.90
7684;DHT22;3884;48.616;12.872;2023-02-20T03:19:59;7.50;1.00
7684;DHT22;3884;48.616;12.872;2023-02-20T03:22:35;7.40;1.00
7684;DHT22;3884;48.616;12.872;2023-02-20T03:25:06;7.50;99.90
7684;DHT22;3884;48.616;12.872;2023-02-20T03:27:41;7.50;44.80
7684;DHT22;3884;48.616;12.872;2023-02-20T03:30:14;7.50;1.00
7684;DHT22;3884;48.616;12.872;2023-02-20T03:32:47;7.50;1.00
7684;DHT22;3884;48.616;12.872;2023-02-20T03:35:34;7.50;1.00
7684;DHT22;3884;48.616;12.872;2023-02-20T03:38:23;7.50;1.00
7684;DHT22;3884;48.616;12.872;2023-02-20T03:41:09;7.50;1.00
7684;DHT22;3884;48.616;12.872;2023-02-20T03:43:58;7.60;99.90
7684;DHT22;3884;48.616;12.872;2023-02-20T03:46:26;7.60;1.00
7684;DHT22;3884;48.616;12.872;2023-02-20T03:49:01;7.60;99.90
7684;DHT22;3884;48.616;12.872;2023-02-20T03:51:30;7.50;1.00
7684;DHT22;3884;48.616;12.872;2023-02-20T03:54:32;7.50;99.90
7684;DHT22;3884;48.616;12.872;2023-02-20T03:57:04;7.50;1.00
7684;DHT22;3884;48.616;12.872;2023-02-20T03:59:36;7.50;99.90
7684;DHT22;3884;48.616;12.872;2023-02-20T04:02:09;7.60;99.90
7684;DHT22;3884;48.616;12.872;2023-02-20T04:04:43;7.50;99.90
7684;DHT22;3884;48.616;12.872;2023-02-20T04:07:15;7.60;99.90
7684;DHT22;3884;48.616;12.872;2023-02-20T04:09:46;7.50;99.90
7684;DHT22;3884;48.616;12.872;2023-02-20T04:12:17;7.50;1.00
7684;DHT22;3884;48.616;12.872;2023-02-20T04:14:48;7.50;99.90
7684;DHT22;3884;48.616;12.872;2023-02-20T04:17:23;7.50;99.90
7684;DHT22;3884;48.616;12.872;2023-02-20T04:19:52;7.50;65.90
7684;DHT22;3884;48.616;12.872;2023-02-20T04:22:23;7.50;30.50
7684;DHT22;3884;48.616;12.872;2023-02-20T04:24:56;7.60;1.00
7684;DHT22;3884;48.616;12.872;2023-02-20T04:27:26;7.50;1.00
7684;DHT22;3884;48.616;12.872;2023-02-20T04:29:56;7.50;1.00
7684;DHT22;3884;48.616;12.872;2023-02-20T04:32:23;7.40;36.10
7684;DHT22;3884;48.616;12.872;2023-02-20T04:34:51;7.50;1.00
7684;DHT22;3884;48.616;12.872;2023-02-20T04:37:19;7.40;99.90
7684;DHT22;3884;48.616;12.872;2023-02-20T04:39:50;7.50;1.00
7684;DHT22;3884;48.616;12.872;2023-02-20T04:42:19;7.40;97.90
7684;DHT22;3884;48.616;12.872;2023-02-20T04:44:47;7.40;1.00
7684;DHT22;3884;48.616;12.872;2023-02-20T04:47:16;7.40;1.00
7684;DHT22;3884;48.616;12.872;2023-02-20T04:49:43;7.30;99.90
7684;DHT22;3884;48.616;12.872;2023-02-20T04:52:14;7.30;99.90
7684;DHT22;3884;48.616;12.872;2023-02-20T04:54:41;7.30;1.00
7684;DHT22;3884;48.616;12.872;2023-02-20T04:57:11;7.30;99.90
7684;DHT22;3884;48.616;12.872;2023-02-20T04:59:40;7.20;99.90
7684;DHT22;3884;48.616;12.872;2023-02-20T05:02:08;7.30;1.00
7684;DHT22;3884;48.616;12.872;2023-02-20T05:04:36;7.30;1.00
7684;DHT22;3884;48.616;12.872;2023-02-20T05:07:03;7.30;99.90
7684;DHT22;3884;48.616;12.872;2023-02-20T05:09:30;7.30;1.60
7684;DHT22;3884;48.616;12.872;2023-02-20T05:11:57;7.30;99.90
7684;DHT22;3884;48.616;12.872;2023-02-20T05:14:25;7.30;1.00
7684;DHT22;3884;48.616;12.872;2023-02-20T05:16:53;7.30;1.00
7684;DHT22;3884;48.616;12.872;2023-02-20T05:19:20;7.30;99.90
7684;DHT22;3884;48.616;12.872;2023-02-20T05:21:47;7.20;1.00
7684;DHT22;3884;48.616;12.872;2023-02-20T05:24:48;7.20;1.00
7684;DHT22;3884;48.616;12.872;2023-02-20T05:27:16;7.20;78.20
7684;DHT22;3884;48.616;12.872;2023-02-20T05:29:45;7.20;1.00
7684;DHT22;3884;48.616;12.872;2023-02-20T05:32:15;7.10;99.90
7684;DHT22;3884;48.616;12.872;2023-02-20T05:34:42;7.10;99.90
7684;DHT22;3884;48.616;12.872;2023-02-20T05:37:10;7.10;99.90
7684;DHT22;3884;48.616;12.872;2023-02-20T05:39:37;7.10;99.90
7684;DHT22;3884;48.616;12.872;2023-02-20T05:42:05;7.10;99.90
7684;DHT22;3884;48.616;12.872;2023-02-20T05:44:32;7.00;37.30
7684;DHT22;3884;48.616;12.872;2023-02-20T05:47:00;7.00;99.90
7684;DHT22;3884;48.616;12.872;2023-02-20T05:49:28;7.00;99.90
7684;DHT22;3884;48.616;12.872;2023-02-20T05:51:57;6.90;99.90
7684;DHT22;3884;48.616;12.872;2023-02-20T05:54:27;6.90;1.00
7684;DHT22;3884;48.616;12.872;2023-02-20T05:56:55;6.90;1.00
7684;DHT22;3884;48.616;12.872;2023-02-20T05:59:22;7.00;1.00
7684;DHT22;3884;48.616;12.872;2023-02-20T06:01:55;7.00;13.30
7684;DHT22;3884;48.616;12.872;2023-02-20T06:04:22;7.00;1.00
7684;DHT22;3884;48.616;12.872;2023-02-20T06:06:50;7.10;1.00
7684;DHT22;3884;48.616;12.872;2023-02-20T06:09:18;7.00;99.90
7684;DHT22;3884;48.616;12.872;2023-02-20T06:11:49;7.00;1.00
7684;DHT22;3884;48.616;12.872;2023-02-20T06:14:16;7.00;1.00
7684;DHT22;3884;48.616;12.872;2023-02-20T06:16:44;7.00;99.90
7684;DHT22;3884;48.616;12.872;2023-02-20T06:19:11;7.00;99.90
7684;DHT22;3884;48.616;12.872;2023-02-20T06:21:44;7.00;99.90
7684;DHT22;3884;48.616;12.872;2023-02-20T06:24:12;7.00;99.90
7684;DHT22;3884;48.616;12.872;2023-02-20T06:26:40;6.90;22.00
7684;DHT22;3884;48.616;12.872;2023-02-20T06:29:08;7.00;99.90
7684;DHT22;3884;48.616;12.872;2023-02-20T06:31:35;7.00;99.90
7684;DHT22;3884;48.616;12.872;2023-02-20T06:34:02;7.00;99.90
7684;DHT22;3884;48.616;12.872;2023-02-20T06:36:34;7.10;67.20
7684;DHT22;3884;48.616;12.872;2023-02-20T06:39:01;7.10;40.90
7684;DHT22;3884;48.616;12.872;2023-02-20T06:41:29;7.10;1.00
7684;DHT22;3884;48.616;12.872;2023-02-20T06:43:56;7.10;99.90
7684;DHT22;3884;48.616;12.872;2023-02-20T06:46:24;7.10;12.50
7684;DHT22;3884;48.616;12.872;2023-02-20T06:48:52;7.10;1.00
7684;DHT22;3884;48.616;12.872;2023-02-20T06:51:21;7.10;1.00
7684;DHT22;3884;48.616;12.872;2023-02-20T06:53:49;7.10;1.00
7684;DHT22;3884;48.616;12.872;2023-02-20T06:56:17;7.20;1.00
7684;DHT22;3884;48.616;12.872;2023-02-20T06:58:47;7.20;99.90
7684;DHT22;3884;48.616;12.872;2023-02-20T07:01:14;7.20;1.00
7684;DHT22;3884;48.616;12.872;2023-02-20T07:03:42;7.30;49.70
7684;DHT22;3884;48.616;12.872;2023-02-20T07:06:09;7.30;99.90
7684;DHT22;3884;48.616;12.872;2023-02-20T07:08:37;7.40;1.00
7684;DHT22;3884;48.616;12.872;2023-02-20T07:11:04;7.30;27.70
7684;DHT22;3884;48.616;12.872;2023-02-20T07:13:31;7.30;1.00
7684;DHT22;3884;48.616;12.872;2023-02-20T07:16:00;7.30;1.00
7684;DHT22;3884;48.616;12.872;2023-02-20T07:18:27;7.30;1.00
7684;DHT22;3884;48.616;12.872;2023-02-20T07:20:54;7.30;73.20
7684;DHT22;3884;48.616;12.872;2023-02-20T07:23:22;7.40;1.00
7684;DHT22;3884;48.616;12.872;2023-02-20T07:25:49;7.30;1.00
7684;DHT22;3884;48.616;12.872;2023-02-20T07:28:16;7.30;1.00
7684;DHT22;3884;48.616;12.872;2023-02-20T07:30:44;7.40;99.90
7684;DHT22;3884;48.616;12.872;2023-02-20T07:33:13;7.40;99.90
7684;DHT22;3884;48.616;12.872;2023-02-20T07:35:40;7.40;99.90
7684;DHT22;3884;48.616;12.872;2023-02-20T07:38:07;7.40;99.90
7684;DHT22;3884;48.616;12.872;2023-02-20T07:40:34;7.40;99.90
7684;DHT22;3884;48.616;12.872;2023-02-20T07:43:01;7.40;99.90
7684;DHT22;3884;48.616;12.872;2023-02-20T07:45:29;7.40;99.90
7684;DHT22;3884;48.616;12.872;2023-02-20T07:47:56;7.50;1.00
7684;DHT22;3884;48.616;12.872;2023-02-20T07:50:25;7.50;99.90
7684;DHT22;3884;48.616;12.872;2023-02-20T07:52:52;7.50;1.00
7684;DHT22;3884;48.616;12.872;2023-02-20T07:55:19;7.50;1.00
7684;DHT22;3884;48.616;12.872;2023-02-20T07:57:47;7.50;1.00
7684;DHT22;3884;48.616;12.872;2023-02-20T08:00:17;7.60;1.00
7684;DHT22;3884;48.616;12.872;2023-02-20T08:02:44;7.60;99.90
7684;DHT22;3884;48.616;12.872;2023-02-20T08:05:11;7.70;99.90
7684;DHT22;3884;48.616;12.872;2023-02-20T08:07:43;7.70;99.90
7684;DHT22;3884;48.616;12.872;2023-02-20T08:10:10;7.60;99.90
7684;DHT22;3884;48.616;12.872;2023-02-20T08:12:37;7.60;99.90
7684;DHT22;3884;48.616;12.872;2023-02-20T08:15:04;7.70;1.00
7684;DHT22;3884;48.616;12.872;2023-02-20T08:17:31;7.80;1.00
7684;DHT22;3884;48.616;12.872;2023-02-20T08:19:58;7.80;1.00
7684;DHT22;3884;48.616;12.872;2023-02-20T08:22:25;7.80;99.90
7684;DHT22;3884;48.616;12.872;2023-02-20T08:24:54;7.90;99.90
7684;DHT22;3884;48.616;12.872;2023-02-20T08:27:21;7.90;1.00
7684;DHT22;3884;48.616;12.872;2023-02-20T08:29:48;7.90;99.90
7684;DHT22;3884;48.616;12.872;2023-02-20T08:32:15;7.80;47.10
7684;DHT22;3884;48.616;12.872;2023-02-20T08:34:42;8.00;17.20
7684;DHT22;3884;48.616;12.872;2023-02-20T08:37:09;8.00;1.00
7684;DHT22;3884;48.616;12.872;2023-02-20T08:39:37;8.00;1.00
7684;DHT22;3884;48.616;12.872;2023-02-20T08:42:05;8.10;1.00
7684;DHT22;3884;48.616;12.872;2023-02-20T08:44:32;8.20;1.00
7684;DHT22;3884;48.616;12.872;2023-02-20T08:46:59;8.20;1.00
7684;DHT22;3884;48.616;12.872;2023-02-20T08:49:26;8.20;1.00
7684;DHT22;3884;48.616;12.872;2023-02-20T08:51:54;8.30;99.90
7684;DHT22;3884;48.616;12.872;2023-02-20T08:54:22;8.30;99.90
7684;DHT22;3884;48.616;12.872;2023-02-20T08:56:49;8.40;99.90
7684;DHT22;3884;48.616;12.872;2023-02-20T08:59:18;8.40;99.90
7684;DHT22;3884;48.616;12.872;2023-02-20T09:01:45;8.40;99.90
7684;DHT22;3884;48.616;12.872;2023-02-20T09:04:12;8.50;24.60
7684;DHT22;3884;48.616;12.872;2023-02-20T09:06:40;8.50;1.00
7684;DHT22;3884;48.616;12.872;2023-02-20T09:09:07;8.50;1.00
7684;DHT22;3884;48.616;12.872;2023-02-20T09:11:35;8.50;1.00
7684;DHT22;3884;48.616;12.872;2023-02-20T09:14:02;8.50;1.00
7684;DHT22;3884;48.616;12.872;2023-02-20T09:16:30;8.50;1.00
7684;DHT22;3884;48.616;12.872;2023-02-20T09:18:57;8.60;1.00
7684;DHT22;3884;48.616;12.872;2023-02-20T09:21:25;8.60;1.00
7684;DHT22;3884;48.616;12.872;2023-02-20T09:23:53;8.60;1.00
7684;DHT22;3884;48.616;12.872;2023-02-20T09:26:20;8.70;1.00
7684;DHT22;3884;48.616;12.872;2023-02-20T09:28:47;8.70;1.00
7684;DHT22;3884;48.616;12.872;2023-02-20T09:31:14;8.80;99.90
7684;DHT22;3884;48.616;12.872;2023-02-20T09:33:45;8.80;99.90
7684;DHT22;3884;48.616;12.872;2023-02-20T09:36:12;8.70;99.90
7684;DHT22;3884;48.616;12.872;2023-02-20T09:38:39;8.80;99.90
7684;DHT22;3884;48.616;12.872;2023-02-20T09:41:13;8.80;99.90
7684;DHT22;3884;48.616;12.872;2023-02-20T09:43:48;8.80;99.90
7684;DHT22;3884;48.616;12.872;2023-02-20T09:46:21;8.90;99.90
7684;DHT22;3884;48.616;12.872;2023-02-20T09:49:01;9.00;99.90
7684;DHT22;3884;48.616;12.872;2023-02-20T09:51:32;8.90;99.90
7684;DHT22;3884;48.616;12.872;2023-02-20T09:54:03;8.80;99.90
7684;DHT22;3884;48.616;12.872;2023-02-20T09:56:34;8.90;99.90
7684;DHT22;3884;48.616;12.872;2023-02-20T09:59:07;9.00;99.90
7684;DHT22;3884;48.616;12.872;2023-02-20T10:01:38;9.20;99.90
7684;DHT22;3884;48.616;12.872;2023-02-20T10:04:11;9.30;99.90
7684;DHT22;3884;48.616;12.872;2023-02-20T10:06:39;9.50;99.90
7684;DHT22;3884;48.616;12.872;2023-02-20T10:09:10;9.50;99.90
7684;DHT22;3884;48.616;12.872;2023-02-20T10:11:57;9.60;99.90
7684;DHT22;3884;48.616;12.872;2023-02-20T10:14:46;9.40;91.50
7684;DHT22;3884;48.616;12.872;2023-02-20T10:17:30;9.30;1.00
7684;DHT22;3884;48.616;12.872;2023-02-20T10:20:05;9.20;1.00
7684;DHT22;3884;48.616;12.872;2023-02-20T10:22:38;9.20;1.00
7684;DHT22;3884;48.616;12.872;2023-02-20T10:25:15;9.40;7.40
7684;DHT22;3884;48.616;12.872;2023-02-20T10:27:52;9.50;1.00
7684;DHT22;3884;48.616;12.872;2023-02-20T10:30:24;9.70;1.00
7684;DHT22;3884;48.616;12.872;2023-02-20T10:32:57;9.70;1.00
7684;DHT22;3884;48.616;12.872;2023-02-20T10:35:34;9.70;1.00
7684;DHT22;3884;48.616;12.872;2023-02-20T10:38:07;9.70;1.00
7684;DHT22;3884;48.616;12.872;2023-02-20T10:40:38;9.70;1.00
7684;DHT22;3884;48.616;12.872;2023-02-20T10:43:11;9.70;1.00
7684;DHT22;3884;48.616;12.872;2023-02-20T10:45:48;9.90;1.00
7684;DHT22;3884;48.616;12.872;2023-02-20T10:48:16;10.00;1.00
7684;DHT22;3884;48.616;12.872;2023-02-20T10:50:48;10.00;1.00
7684;DHT22;3884;48.616;12.872;2023-02-20T10:53:23;10.20;1.00
7684;DHT22;3884;48.616;12.872;2023-02-20T10:55:58;10.20;1.00
7684;DHT22;3884;48.616;12.872;2023-02-20T10:58:30;10.20;1.00
7684;DHT22;3884;48.616;12.872;2023-02-20T11:01:01;10.20;1.00
7684;DHT22;3884;48.616;12.872;2023-02-20T11:03:36;10.30;1.00
7684;DHT22;3884;48.616;12.872;2023-02-20T11:06:10;10.40;1.00
7684;DHT22;3884;48.616;12.872;2023-02-20T11:08:38;10.50;99.90
7684;DHT22;3884;48.616;12.872;2023-02-20T11:11:20;10.50;99.90
7684;DHT22;3884;48.616;12.872;2023-02-20T11:13:48;10.50;99.90
7684;DHT22;3884;48.616;12.872;2023-02-20T11:16:21;10.60;99.90
7684;DHT22;3884;48.616;12.872;2023-02-20T11:18:54;10.60;99.90
7684;DHT22;3884;48.616;12.872;2023-02-20T11:21:39;10.50;99.90
7684;DHT22;3884;48.616;12.872;2023-02-20T11:24:31;10.60;99.90
7684;DHT22;3884;48.616;12.872;2023-02-20T11:27:02;10.60;99.90
7684;DHT22;3884;48.616;12.872;2023-02-20T11:29:39;10.80;99.90
7684;DHT22;3884;48.616;12.872;2023-02-20T11:32:28;10.90;99.90
7684;DHT22;3884;48.616;12.872;2023-02-20T11:35:20;10.80;99.90
7684;DHT22;3884;48.616;12.872;2023-02-20T11:37:50;10.90;99.90
7684;DHT22;3884;48.616;12.872;2023-02-20T11:40:23;11.10;99.90
7684;DHT22;3884;48.616;12.872;2023-02-20T11:42:52;11.30;99.90
7684;DHT22;3884;48.616;12.872;2023-02-20T11:45:22;11.30;99.90
7684;DHT22;3884;48.616;12.872;2023-02-20T11:48:07;11.40;99.90
7684;DHT22;3884;48.616;12.872;2023-02-20T11:50:39;11.50;99.90
7684;DHT22;3884;48.616;12.872;2023-02-20T11:53:17;11.40;99.90
7684;DHT22;3884;48.616;12.872;2023-02-20T11:55:45;11.40;99.90
7684;DHT22;3884;48.616;12.872;2023-02-20T11:58:21;11.50;99.90
7684;DHT22;3884;48.616;12.872;2023-02-20T12:00:51;11.50;99.90
7684;DHT22;3884;48.616;12.872;2023-02-20T12:03:21;11.50;96.70
7684;DHT22;3884;48.616;12.872;2023-02-20T12:05:50;11.50;94.90
7684;DHT22;3884;48.616;12.872;2023-02-20T12:08:33;11.50;40.00
7684;DHT22;3884;48.616;12.872;2023-02-20T12:11:05;11.50;18.00
7684;DHT22;3884;48.616;12.872;2023-02-20T12:13:36;11.60;93.90
7684;DHT22;3884;48.616;12.872;2023-02-20T12:16:21;11.60;99.90
7684;DHT22;3884;48.616;12.872;2023-02-20T12:18:54;11.40;45.80
7684;DHT22;3884;48.616;12.872;2023-02-20T12:21:30;11.40;18.60
7684;DHT22;3884;48.616;12.872;2023-02-20T12:24:13;11.50;90.10
7684;DHT22;3884;48.616;12.872;2023-02-20T12:26:50;11.60;46.20
7684;DHT22;3884;48.616;12.872;2023-02-20T12:29:27;11.60;58.80
7684;DHT22;3884;48.616;12.872;2023-02-20T12:32:07;11.70;98.20
7684;DHT22;3884;48.616;12.872;2023-02-20T12:34:48;11.70;22.20
7684;DHT22;3884;48.616;12.872;2023-02-20T12:37:22;11.80;92.30
7684;DHT22;3884;48.616;12.872;2023-02-20T12:40:01;11.80;1.00
7684;DHT22;3884;48.616;12.872;2023-02-20T12:42:39;11.80;49.50
7684;DHT22;3884;48.616;12.872;2023-02-20T12:45:24;11.80;1.00
7684;DHT22;3884;48.616;12.872;2023-02-20T12:48:02;11.90;1.00
7684;DHT22;3884;48.616;12.872;2023-02-20T12:50:41;12.00;1.00
7684;DHT22;3884;48.616;12.872;2023-02-20T12:53:32;12.20;5.40
7684;DHT22;3884;48.616;12.872;2023-02-20T12:56:16;12.20;1.00
7684;DHT22;3884;48.616;12.872;2023-02-20T12:58:47;12.20;1.00
7684;DHT22;3884;48.616;12.872;2023-02-20T13:01:20;12.10;1.00
7684;DHT22;3884;48.616;12.872;2023-02-20T13:03:56;12.20;1.00
7684;DHT22;3884;48.616;12.872;2023-02-20T13:06:28;12.20;1.00
7684;DHT22;3884;48.616;12.872;2023-02-20T13:09:03;12.30;17.80
7684;DHT22;3884;48.616;12.872;2023-02-20T13:11:38;12.30;1.00
7684;DHT22;3884;48.616;12.872;2023-02-20T13:14:18;12.30;1.00
7684;DHT22;3884;48.616;12.872;2023-02-20T13:16:50;12.40;1.00
7684;DHT22;3884;48.616;12.872;2023-02-20T13:19:24;12.30;1.00
7684;DHT22;3884;48.616;12.872;2023-02-20T13:21:54;12.40;1.00
7684;DHT22;3884;48.616;12.872;2023-02-20T13:24:30;12.30;1.00
7684;DHT22;3884;48.616;12.872;2023-02-20T13:27:00;12.20;1.00
7684;DHT22;3884;48.616;12.872;2023-02-20T13:29:33;12.20;1.00
7684;DHT22;3884;48.616;12.872;2023-02-20T13:32:03;12.20;1.00
7684;DHT22;3884;48.616;12.872;2023-02-20T13:34:33;12.20;1.00
7684;DHT22;3884;48.616;12.872;2023-02-20T13:37:01;12.30;1.00
7684;DHT22;3884;48.616;12.872;2023-02-20T13:39:40;12.30;1.00
7684;DHT22;3884;48.616;12.872;2023-02-20T13:42:32;12.50;1.00
7684;DHT22;3884;48.616;12.872;2023-02-20T13:44:59;12.50;1.00
7684;DHT22;3884;48.616;12.872;2023-02-20T13:47:29;12.40;1.00
7684;DHT22;3884;48.616;12.872;2023-02-20T13:49:58;12.50;1.00
7684;DHT22;3884;48.616;12.872;2023-02-20T13:52:36;12.60;1.00
7684;DHT22;3884;48.616;12.872;2023-02-20T13:55:15;12.70;1.00
7684;DHT22;3884;48.616;12.872;2023-02-20T13:57:47;12.80;1.00
7684;DHT22;3884;48.616;12.872;2023-02-20T14:00:21;12.80;1.00
7684;DHT22;3884;48.616;12.872;2023-02-20T14:02:50;12.90;1.00
7684;DHT22;3884;48.616;12.872;2023-02-20T14:05:20;13.00;1.00
7684;DHT22;3884;48.616;12.872;2023-02-20T14:07:47;13.10;1.00
7684;DHT22;3884;48.616;12.872;2023-02-20T14:10:18;13.10;1.00
7684;DHT22;3884;48.616;12.872;2023-02-20T14:12:56;13.10;1.00
7684;DHT22;3884;48.616;12.872;2023-02-20T14:15:24;13.00;1.00
7684;DHT22;3884;48.616;12.872;2023-02-20T14:17:52;13.00;1.00
7684;DHT22;3884;48.616;12.872;2023-02-20T14:20:22;13.10;1.00
7684;DHT22;3884;48.616;12.872;2023-02-20T14:23:19;13.20;1.00
7684;DHT22;3884;48.616;12.872;2023-02-20T14:25:55;13.40;1.00
7684;DHT22;3884;48.616;12.872;2023-02-20T14:28:24;13.70;1.00
7684;DHT22;3884;48.616;12.872;2023-02-20T14:31:19;13.80;1.00
7684;DHT22;3884;48.616;12.872;2023-02-20T14:33:47;13.80;1.00
7684;DHT22;3884;48.616;12.872;2023-02-20T14:36:24;13.80;1.00
7684;DHT22;3884;48.616;12.872;2023-02-20T14:39:06;13.80;1.00
7684;DHT22;3884;48.616;12.872;2023-02-20T14:41:36;13.80;1.00
7684;DHT22;3884;48.616;12.872;2023-02-20T14:44:13;13.80;1.00
7684;DHT22;3884;48.616;12.872;2023-02-20T14:46:42;13.90;1.00
7684;DHT22;3884;48.616;12.872;2023-02-20T14:49:12;13.90;1.00
7684;DHT22;3884;48.616;12.872;2023-02-20T14:51:40;13.80;1.00
7684;DHT22;3884;48.616;12.872;2023-02-20T14:54:17;13.80;1.00
7684;DHT22;3884;48.616;12.872;2023-02-20T14:56:44;13.90;1.00
7684;DHT22;3884;48.616;12.872;2023-02-20T14:59:22;13.90;1.00
7684;DHT22;3884;48.616;12.872;2023-02-20T15:01:50;14.10;1.00
7684;DHT22;3884;48.616;12.872;2023-02-20T15:04:18;14.00;1.00
7684;DHT22;3884;48.616;12.872;2023-02-20T15:06:47;14.10;1.00
7684;DHT22;3884;48.616;12.872;2023-02-20T15:09:15;14.20;1.00
7684;DHT22;3884;48.616;12.872;2023-02-20T15:11:47;14.20;1.00
7684;DHT22;3884;48.616;12.872;2023-02-20T15:14:22;14.20;1.00
7684;DHT22;3884;48.616;12.872;2023-02-20T15:17:08;14.10;99.90
7684;DHT22;3884;48.616;12.872;2023-02-20T15:19:37;14.20;1.00
7684;DHT22;3884;48.616;12.872;2023-02-20T15:22:05;14.10;1.00
7684;DHT22;3884;48.616;12.872;2023-02-20T15:24:37;14.20;1.00
7684;DHT22;3884;48.616;12.872;2023-02-20T15:27:13;14.20;99.90
7684;DHT22;3884;48.616;12.872;2023-02-20T15:29:43;14.20;99.90
7684;DHT22;3884;48.616;12.872;2023-02-20T15:32:19;14.10;99.90
7684;DHT22;3884;48.616;12.872;2023-02-20T15:34:50;13.90;99.90
7684;DHT22;3884;48.616;12.872;2023-02-20T15:37:21;14.00;99.90
7684;DHT22;3884;48.616;12.872;2023-02-20T15:39:49;13.90;99.90
7684;DHT22;3884;48.616;12.872;2023-02-20T15:42:19;13.80;99.90
7684;DHT22;3884;48.616;12.872;2023-02-20T15:44:47;13.80;99.90
7684;DHT22;3884;48.616;12.872;2023-02-20T15:47:15;13.70;99.90
7684;DHT22;3884;48.616;12.872;2023-02-20T15:49:42;13.70;99.90
7684;DHT22;3884;48.616;12.872;2023-02-20T15:52:14;13.60;99.90
7684;DHT22;3884;48.616;12.872;2023-02-20T15:54:46;13.60;99.90
7684;DHT22;3884;48.616;12.872;2023-02-20T15:57:16;13.40;99.90
7684;DHT22;3884;48.616;12.872;2023-02-20T15:59:44;13.30;99.90
7684;DHT22;3884;48.616;12.872;2023-02-20T16:02:16;13.30;99.90
7684;DHT22;3884;48.616;12.872;2023-02-20T16:04:46;13.10;99.90
7684;DHT22;3884;48.616;12.872;2023-02-20T16:07:15;13.00;99.90
7684;DHT22;3884;48.616;12.872;2023-02-20T16:09:43;12.90;99.90
7684;DHT22;3884;48.616;12.872;2023-02-20T16:12:14;12.90;99.90
7684;DHT22;3884;48.616;12.872;2023-02-20T16:14:43;12.80;99.90
7684;DHT22;3884;48.616;12.872;2023-02-20T16:17:17;12.70;99.90
7684;DHT22;3884;48.616;12.872;2023-02-20T16:19:46;12.60;99.90
7684;DHT22;3884;48.616;12.872;2023-02-20T16:22:13;12.50;99.90
7684;DHT22;3884;48.616;12.872;2023-02-20T16:24:40;12.40;99.90
7684;DHT22;3884;48.616;12.872;2023-02-20T16:27:14;12.40;99.90
7684;DHT22;3884;48.616;12.872;2023-02-20T16:29:43;12.20;99.90
7684;DHT22;3884;48.616;12.872;2023-02-20T16:32:23;12.20;99.90
7684;DHT22;3884;48.616;12.872;2023-02-20T16:34:51;12.10;99.90
7684;DHT22;3884;48.616;12.872;2023-02-20T16:37:19;11.90;99.90
7684;DHT22;3884;48.616;12.872;2023-02-20T16:39:46;11.90;99.90
7684;DHT22;3884;48.616;12.872;2023-02-20T16:42:27;11.70;99.90
7684;DHT22;3884;48.616;12.872;2023-02-20T16:44:54;11.60;99.90
7684;DHT22;3884;48.616;12.872;2023-02-20T16:47:27;11.50;99.90